Time,TemperatureF,DewpointF,PressureIn,WindDirection,WindDirectionDegrees,WindSpeedMPH,WindSpeedGustMPH,Humidity,HourlyPrecipIn,Conditions,Clouds,dailyrainin,SoftwareType,DateUTC
2013-07-10 00:00:00,74.7,72.5,30.09,East,91,0.0,0.0,93,0.00,,---,0.00,VWS V14.01,2013-07-10 04:00:00,
2013-07-10 00:01:00,74.7,72.6,30.09,East,91,0.0,0.0,93,0.00,,---,0.00,VWS V14.01,2013-07-10 04:01:00,
2013-07-10 00:02:00,74.7,72.6,30.09,East,91,0.0,0.0,93,0.00,,---,0.00,VWS V14.01,2013-07-10 04:02:00,
2013-07-10 00:03:00,74.7,72.6,30.09,East,91,0.0,0.0,93,0.00,,---,0.00,VWS V14.01,2013-07-10 04:03:00,
2013-07-10 00:08:00,74.7,72.6,30.09,East,91,0.0,0.0,93,0.00,,---,0.00,VWS V14.01,2013-07-10 04:08:00,
2013-07-10 00:13:00,74.6,72.4,30.08,East,91,0.0,0.0,93,0.00,,---,0.00,VWS V14.01,2013-07-10 04:13:00,
2013-07-10 00:18:00,74.4,72.2,30.08,East,91,0.0,0.0,93,0.00,,---,0.00,VWS V14.01,2013-07-10 04:18:00,
2013-07-10 00:23:00,74.3,72.5,30.08,East,91,0.0,0.0,94,0.00,,---,0.00,VWS V14.01,2013-07-10 04:23:00,
2013-07-10 00:29:00,74.3,72.8,30.08,East,91,0.0,0.0,95,0.00,,---,0.00,VWS V14.01,2013-07-10 04:29:00,
2013-07-10 00:30:00,74.3,72.8,30.08,East,91,0.0,0.0,95,0.00,,---,0.00,VWS V14.01,2013-07-10 04:30:00,
2013-07-10 00:34:00,74.3,72.8,30.08,East,91,0.0,0.0,95,0.00,,---,0.00,VWS V14.01,2013-07-10 04:34:00,
2013-07-10 00:39:00,74.3,72.8,30.08,East,91,0.0,0.0,95,0.00,,---,0.00,VWS V14.01,2013-07-10 04:39:00,
2013-07-10 00:44:00,74.2,72.7,30.08,East,91,0.0,0.0,95,0.00,,---,0.00,VWS V14.01,2013-07-10 04:44:00,
2013-07-10 00:49:00,74.1,72.3,30.08,East,91,0.0,0.0,94,0.00,,---,0.00,VWS V14.01,2013-07-10 04:49:00,
2013-07-10 00:54:00,74.0,72.5,30.08,East,91,0.0,0.0,95,0.00,,---,0.00,VWS V14.01,2013-07-10 04:54:00,
2013-07-10 00:59:00,74.0,72.5,30.08,East,91,0.0,0.0,95,0.00,,---,0.00,VWS V14.01,2013-07-10 04:59:00,
2013-07-10 01:00:00,74.0,72.5,30.08,East,91,0.0,0.0,95,0.00,,---,0.00,VWS V14.01,2013-07-10 05:00:00,
2013-07-10 01:04:00,73.8,72.3,30.08,East,91,0.0,0.0,95,0.00,,---,0.00,VWS V14.01,2013-07-10 05:04:00,
2013-07-10 01:09:00,73.7,72.2,30.08,East,91,0.0,0.0,95,0.00,,---,0.00,VWS V14.01,2013-07-10 05:09:00,
2013-07-10 01:15:00,73.6,72.1,30.07,East,91,0.0,0.0,95,0.00,,---,0.00,VWS V14.01,2013-07-10 05:15:00,
2013-07-10 01:20:00,73.5,72.0,30.07,East,91,0.0,0.0,95,0.00,,---,0.00,VWS V14.01,2013-07-10 05:20:00,
2013-07-10 01:25:00,73.4,72.2,30.07,East,91,0.0,0.0,96,0.00,,---,0.00,VWS V14.01,2013-07-10 05:25:00,
2013-07-10 01:30:00,73.0,71.8,30.07,East,91,0.0,0.0,96,0.00,,---,0.00,VWS V14.01,2013-07-10 05:30:00,
2013-07-10 01:35:00,72.9,71.7,30.06,East,91,0.0,0.0,96,0.00,,---,0.00,VWS V14.01,2013-07-10 05:35:00,
2013-07-10 01:40:00,72.8,71.6,30.07,East,91,0.0,0.0,96,0.00,,---,0.00,VWS V14.01,2013-07-10 05:40:00,
2013-07-10 01:45:00,72.8,71.6,30.07,East,91,0.0,0.0,96,0.00,,---,0.00,VWS V14.01,2013-07-10 05:45:00,
2013-07-10 01:50:00,72.7,71.5,30.07,East,91,0.0,0.0,96,0.00,,---,0.00,VWS V14.01,2013-07-10 05:50:00,
2013-07-10 01:55:00,72.6,71.4,30.07,East,91,0.0,0.0,96,0.00,,---,0.00,VWS V14.01,2013-07-10 05:55:00,
2013-07-10 02:00:00,72.6,71.7,30.07,East,91,0.0,0.0,97,0.00,,---,0.00,VWS V14.01,2013-07-10 06:00:00,
2013-07-10 02:01:00,72.6,71.7,30.07,East,91,0.0,0.0,97,0.00,,---,0.00,VWS V14.01,2013-07-10 06:01:00,
2013-07-10 02:06:00,72.4,71.5,30.07,East,91,0.0,0.0,97,0.00,,---,0.00,VWS V14.01,2013-07-10 06:06:00,
2013-07-10 02:11:00,72.3,71.4,30.07,East,91,0.0,0.0,97,0.00,,---,0.00,VWS V14.01,2013-07-10 06:11:00,
2013-07-10 02:16:00,72.2,71.0,30.07,East,91,0.0,0.0,96,0.00,,---,0.00,VWS V14.01,2013-07-10 06:16:00,
2013-07-10 02:21:00,72.0,71.1,30.06,East,91,0.0,0.0,97,0.00,,---,0.00,VWS V14.01,2013-07-10 06:21:00,
2013-07-10 02:26:00,72.1,71.2,30.07,East,91,0.0,0.0,97,0.00,,---,0.00,VWS V14.01,2013-07-10 06:26:00,
2013-07-10 02:30:00,72.0,71.1,30.07,East,91,0.0,0.0,97,0.00,,---,0.00,VWS V14.01,2013-07-10 06:30:00,
2013-07-10 02:31:00,72.0,71.1,30.06,East,91,0.0,0.0,97,0.00,,---,0.00,VWS V14.01,2013-07-10 06:31:00,
2013-07-10 02:36:00,71.9,71.0,30.06,East,91,0.0,0.0,97,0.00,,---,0.00,VWS V14.01,2013-07-10 06:36:00,
2013-07-10 02:41:00,71.8,70.9,30.06,East,91,0.0,0.0,97,0.00,,---,0.00,VWS V14.01,2013-07-10 06:41:00,
2013-07-10 02:47:00,71.6,70.7,30.06,East,91,0.0,0.0,97,0.00,,---,0.00,VWS V14.01,2013-07-10 06:47:00,
2013-07-10 02:52:00,71.5,70.6,30.06,East,91,0.0,0.0,97,0.00,,---,0.00,VWS V14.01,2013-07-10 06:52:00,
2013-07-10 02:57:00,71.5,70.6,30.06,East,91,0.0,0.0,97,0.00,,---,0.00,VWS V14.01,2013-07-10 06:57:00,
2013-07-10 03:00:00,71.5,70.9,30.06,East,91,0.0,0.0,98,0.00,,---,0.00,VWS V14.01,2013-07-10 07:00:00,
2013-07-10 03:02:00,71.5,70.9,30.06,East,91,0.0,0.0,98,0.00,,---,0.00,VWS V14.01,2013-07-10 07:02:00,
2013-07-10 03:07:00,71.4,70.8,30.06,East,91,0.0,0.0,98,0.00,,---,0.00,VWS V14.01,2013-07-10 07:07:00,
2013-07-10 03:12:00,71.3,70.7,30.06,East,91,0.0,0.0,98,0.00,,---,0.00,VWS V14.01,2013-07-10 07:12:00,
2013-07-10 03:17:00,71.4,70.8,30.06,East,91,0.0,0.0,98,0.00,,---,0.00,VWS V14.01,2013-07-10 07:17:00,
2013-07-10 03:22:00,71.5,70.9,30.06,East,91,0.0,0.0,98,0.00,,---,0.00,VWS V14.01,2013-07-10 07:22:00,
2013-07-10 03:28:00,71.4,70.8,30.06,East,91,0.0,0.0,98,0.00,,---,0.00,VWS V14.01,2013-07-10 07:28:00,
2013-07-10 03:30:00,71.4,70.8,30.06,East,91,0.0,0.0,98,0.00,,---,0.00,VWS V14.01,2013-07-10 07:30:00,
2013-07-10 03:33:00,71.3,70.7,30.06,East,91,0.0,0.0,98,0.00,,---,0.00,VWS V14.01,2013-07-10 07:33:00,
2013-07-10 03:38:00,71.2,70.6,30.06,East,91,0.0,0.0,98,0.00,,---,0.00,VWS V14.01,2013-07-10 07:38:00,
2013-07-10 03:43:00,71.2,70.6,30.06,East,91,0.0,0.0,98,0.00,,---,0.00,VWS V14.01,2013-07-10 07:43:00,
2013-07-10 03:48:00,71.1,70.5,30.06,East,91,0.0,0.0,98,0.00,,---,0.00,VWS V14.01,2013-07-10 07:48:00,
2013-07-10 03:53:00,71.0,70.4,30.06,East,91,0.0,0.0,98,0.00,,---,0.00,VWS V14.01,2013-07-10 07:53:00,
2013-07-10 03:58:00,71.0,70.4,30.06,East,91,0.0,0.0,98,0.00,,---,0.00,VWS V14.01,2013-07-10 07:58:00,
2013-07-10 04:00:00,71.0,70.4,30.06,East,91,0.0,0.0,98,0.00,,---,0.00,VWS V14.01,2013-07-10 08:00:00,
2013-07-10 04:03:00,71.0,70.4,30.06,East,91,0.0,0.0,98,0.00,,---,0.00,VWS V14.01,2013-07-10 08:03:00,
2013-07-10 04:08:00,71.1,70.5,30.06,East,91,0.0,0.0,98,0.00,,---,0.00,VWS V14.01,2013-07-10 08:08:00,
2013-07-10 04:13:00,71.0,70.7,30.06,East,91,0.0,0.0,99,0.00,,---,0.00,VWS V14.01,2013-07-10 08:13:00,
2013-07-10 04:18:00,71.1,70.8,30.06,East,91,1.0,1.0,99,0.00,,---,0.00,VWS V14.01,2013-07-10 08:18:00,
2013-07-10 04:24:00,71.1,70.8,30.06,East,91,0.0,1.0,99,0.00,,---,0.00,VWS V14.01,2013-07-10 08:24:00,
2013-07-10 04:29:00,71.2,70.9,30.06,East,91,0.0,1.0,99,0.00,,---,0.00,VWS V14.01,2013-07-10 08:29:00,
2013-07-10 04:30:00,71.2,70.9,30.06,East,91,0.0,1.0,99,0.00,,---,0.00,VWS V14.01,2013-07-10 08:30:00,
2013-07-10 04:34:00,71.2,70.9,30.06,East,91,0.0,1.0,99,0.00,,---,0.00,VWS V14.01,2013-07-10 08:34:00,
2013-07-10 04:39:00,71.2,70.9,30.06,East,91,0.0,1.0,99,0.00,,---,0.00,VWS V14.01,2013-07-10 08:39:00,
2013-07-10 04:44:00,71.1,70.8,30.06,East,91,0.0,1.0,99,0.00,,---,0.00,VWS V14.01,2013-07-10 08:44:00,
2013-07-10 04:49:00,71.0,70.7,30.06,East,91,0.0,1.0,99,0.00,,---,0.00,VWS V14.01,2013-07-10 08:49:00,
2013-07-10 04:54:00,70.8,70.5,30.06,East,91,0.0,1.0,99,0.00,,---,0.00,VWS V14.01,2013-07-10 08:54:00,
2013-07-10 04:59:00,70.8,70.5,30.06,East,91,0.0,1.0,99,0.00,,---,0.00,VWS V14.01,2013-07-10 08:59:00,
2013-07-10 05:00:00,70.7,70.4,30.06,East,91,0.0,1.0,99,0.00,,---,0.00,VWS V14.01,2013-07-10 09:00:00,
2013-07-10 05:04:00,70.7,70.4,30.06,East,91,0.0,0.0,99,0.00,,---,0.00,VWS V14.01,2013-07-10 09:04:00,
2013-07-10 05:10:00,70.7,70.4,30.06,East,91,0.0,0.0,99,0.00,,---,0.00,VWS V14.01,2013-07-10 09:10:00,
2013-07-10 05:15:00,70.7,70.4,30.06,East,91,0.0,0.0,99,0.00,,---,0.00,VWS V14.01,2013-07-10 09:15:00,
2013-07-10 05:20:00,70.7,70.4,30.06,East,91,0.0,0.0,99,0.00,,---,0.00,VWS V14.01,2013-07-10 09:20:00,
2013-07-10 05:25:00,70.6,70.3,30.06,East,91,0.0,0.0,99,0.00,,---,0.00,VWS V14.01,2013-07-10 09:25:00,
2013-07-10 05:30:00,70.6,70.3,30.06,East,91,0.0,0.0,99,0.00,,---,0.00,VWS V14.01,2013-07-10 09:30:00,
2013-07-10 05:35:00,70.5,70.2,30.05,East,91,0.0,0.0,99,0.00,,---,0.00,VWS V14.01,2013-07-10 09:35:00,
2013-07-10 05:40:00,70.5,70.2,30.05,East,91,0.0,0.0,99,0.00,,---,0.00,VWS V14.01,2013-07-10 09:40:00,
2013-07-10 05:45:00,70.5,70.2,30.05,East,91,0.0,0.0,99,0.00,,---,0.00,VWS V14.01,2013-07-10 09:45:00,
2013-07-10 05:50:00,70.5,70.2,30.05,East,91,0.0,0.0,99,0.00,,---,0.00,VWS V14.01,2013-07-10 09:50:00,
2013-07-10 05:55:00,70.5,70.2,30.05,East,91,0.0,0.0,99,0.00,,---,0.00,VWS V14.01,2013-07-10 09:55:00,
2013-07-10 06:00:00,70.5,70.2,30.05,East,91,0.0,0.0,99,0.00,,---,0.00,VWS V14.01,2013-07-10 10:00:00,
2013-07-10 06:01:00,70.5,70.2,30.05,East,91,0.0,0.0,99,0.00,,---,0.00,VWS V14.01,2013-07-10 10:01:00,
2013-07-10 06:06:00,70.4,70.1,30.05,East,91,0.0,0.0,99,0.00,,---,0.00,VWS V14.01,2013-07-10 10:06:00,
2013-07-10 06:11:00,70.4,70.1,30.05,East,91,0.0,0.0,99,0.00,,---,0.00,VWS V14.01,2013-07-10 10:11:00,
2013-07-10 06:16:00,70.4,70.1,30.05,East,91,0.0,0.0,99,0.00,,---,0.00,VWS V14.01,2013-07-10 10:16:00,
2013-07-10 06:21:00,70.4,70.1,30.05,East,91,0.0,0.0,99,0.00,,---,0.00,VWS V14.01,2013-07-10 10:21:00,
2013-07-10 06:26:00,70.4,70.1,30.05,East,91,0.0,0.0,99,0.00,,---,0.00,VWS V14.01,2013-07-10 10:26:00,
2013-07-10 06:30:00,70.4,70.1,30.05,East,91,0.0,0.0,99,0.00,,---,0.00,VWS V14.01,2013-07-10 10:30:00,
2013-07-10 06:31:00,70.4,70.1,30.05,East,91,0.0,0.0,99,0.00,,---,0.00,VWS V14.01,2013-07-10 10:31:00,
2013-07-10 06:36:00,70.5,70.2,30.05,East,91,0.0,0.0,99,0.00,,---,0.00,VWS V14.01,2013-07-10 10:36:00,
2013-07-10 06:41:00,70.4,70.1,30.05,East,91,0.0,0.0,99,0.00,,---,0.00,VWS V14.01,2013-07-10 10:41:00,
2013-07-10 06:47:00,70.5,70.2,30.05,East,91,0.0,0.0,99,0.00,,---,0.00,VWS V14.01,2013-07-10 10:47:00,
2013-07-10 06:52:00,70.5,70.2,30.05,East,91,0.0,0.0,99,0.00,,---,0.00,VWS V14.01,2013-07-10 10:52:00,
2013-07-10 06:57:00,70.6,70.6,30.06,East,91,0.0,0.0,100,0.00,,---,0.00,VWS V14.01,2013-07-10 10:57:00,
2013-07-10 07:00:00,70.7,70.7,30.06,East,91,0.0,0.0,100,0.00,,---,0.00,VWS V14.01,2013-07-10 11:00:00,
2013-07-10 07:02:00,70.7,70.7,30.05,East,91,0.0,0.0,100,0.00,,---,0.00,VWS V14.01,2013-07-10 11:02:00,
2013-07-10 07:07:00,71.0,71.0,30.05,East,91,0.0,0.0,100,0.00,,---,0.00,VWS V14.01,2013-07-10 11:07:00,
2013-07-10 07:13:00,71.2,71.2,30.05,East,91,0.0,0.0,100,0.00,,---,0.00,VWS V14.01,2013-07-10 11:13:00,
2013-07-10 07:18:00,71.5,71.5,30.05,East,91,0.0,1.0,100,0.00,,---,0.00,VWS V14.01,2013-07-10 11:18:00,
2013-07-10 07:23:00,71.7,71.7,30.05,East,91,0.0,1.0,100,0.00,,---,0.00,VWS V14.01,2013-07-10 11:23:00,
2013-07-10 07:28:00,72.0,72.0,30.06,East,91,0.0,1.0,100,0.00,,---,0.00,VWS V14.01,2013-07-10 11:28:00,
2013-07-10 07:30:00,72.1,72.1,30.06,East,91,0.0,1.0,100,0.00,,---,0.00,VWS V14.01,2013-07-10 11:30:00,
2013-07-10 07:33:00,72.4,72.4,30.06,East,91,0.0,0.0,100,0.00,,---,0.00,VWS V14.01,2013-07-10 11:33:00,
2013-07-10 07:38:00,72.8,72.8,30.06,East,91,0.0,0.0,100,0.00,,---,0.00,VWS V14.01,2013-07-10 11:38:00,
2013-07-10 07:43:00,73.2,73.2,30.06,East,91,0.0,1.0,100,0.00,,---,0.00,VWS V14.01,2013-07-10 11:43:00,
2013-07-10 07:48:00,73.7,73.7,30.06,East,91,0.0,2.0,100,0.00,,---,0.00,VWS V14.01,2013-07-10 11:48:00,
2013-07-10 07:53:00,74.2,74.2,30.06,East,91,0.0,2.0,100,0.00,,---,0.00,VWS V14.01,2013-07-10 11:53:00,
2013-07-10 07:58:00,74.8,74.8,30.06,East,91,2.0,2.0,100,0.00,,---,0.00,VWS V14.01,2013-07-10 11:58:00,
2013-07-10 08:00:00,74.9,74.9,30.06,East,91,2.0,2.0,100,0.00,,---,0.00,VWS V14.01,2013-07-10 12:00:00,
2013-07-10 08:04:00,75.0,74.7,30.06,East,91,2.0,3.0,99,0.00,,---,0.00,VWS V14.01,2013-07-10 12:04:00,
2013-07-10 08:09:00,75.4,75.1,30.06,East,91,0.0,3.0,99,0.00,,---,0.00,VWS V14.01,2013-07-10 12:09:00,
2013-07-10 08:14:00,76.0,76.0,30.06,ENE,71,1.0,4.0,100,0.00,,---,0.00,VWS V14.01,2013-07-10 12:14:00,
2013-07-10 08:19:00,76.3,75.7,30.07,ENE,71,1.0,4.0,98,0.00,,---,0.00,VWS V14.01,2013-07-10 12:19:00,
2013-07-10 08:24:00,76.7,76.1,30.07,ENE,71,1.0,4.0,98,0.00,,---,0.00,VWS V14.01,2013-07-10 12:24:00,
2013-07-10 08:29:00,77.5,76.6,30.07,ENE,71,0.0,4.0,97,0.00,,---,0.00,VWS V14.01,2013-07-10 12:29:00,
2013-07-10 08:30:00,77.5,76.6,30.07,ENE,71,1.0,4.0,97,0.00,,---,0.00,VWS V14.01,2013-07-10 12:30:00,
2013-07-10 08:34:00,78.2,77.0,30.07,ENE,71,0.0,1.0,96,0.00,,---,0.00,VWS V14.01,2013-07-10 12:34:00,
2013-07-10 08:39:00,78.9,77.0,30.08,ENE,71,2.0,2.0,94,0.00,,---,0.00,VWS V14.01,2013-07-10 12:39:00,
2013-07-10 08:45:00,79.4,77.2,30.07,ENE,71,0.0,2.0,93,0.00,,---,0.00,VWS V14.01,2013-07-10 12:45:00,
2013-07-10 08:50:00,80.1,77.2,30.07,ENE,71,1.0,2.0,91,0.00,,---,0.00,VWS V14.01,2013-07-10 12:50:00,
2013-07-10 08:55:00,80.6,77.4,30.08,ENE,71,0.0,2.0,90,0.00,,---,0.00,VWS V14.01,2013-07-10 12:55:00,
2013-07-10 09:00:00,81.0,76.8,30.08,ENE,71,0.0,0.0,87,0.00,,---,0.00,VWS V14.01,2013-07-10 13:00:00,
2013-07-10 09:05:00,81.1,76.9,30.08,ENE,71,0.0,3.0,87,0.00,,---,0.00,VWS V14.01,2013-07-10 13:05:00,
2013-07-10 09:10:00,81.1,76.2,30.07,South,176,2.0,4.0,85,0.00,,---,0.00,VWS V14.01,2013-07-10 13:10:00,
2013-07-10 09:15:00,81.2,76.6,30.08,South,176,1.0,4.0,86,0.00,,---,0.00,VWS V14.01,2013-07-10 13:15:00,
2013-07-10 09:20:00,81.4,76.1,30.08,South,175,4.0,5.0,84,0.00,,---,0.00,VWS V14.01,2013-07-10 13:20:00,
2013-07-10 09:25:00,81.6,76.7,30.08,South,173,2.0,5.0,85,0.00,,---,0.00,VWS V14.01,2013-07-10 13:25:00,
2013-07-10 09:30:00,81.9,76.6,30.08,South,173,0.0,3.0,84,0.00,,---,0.00,VWS V14.01,2013-07-10 13:30:00,
2013-07-10 09:35:00,82.2,76.2,30.08,SSE,163,2.0,4.0,82,0.00,,---,0.00,VWS V14.01,2013-07-10 13:35:00,
2013-07-10 09:40:00,82.1,75.7,30.08,SSE,161,0.0,4.0,81,0.00,,---,0.00,VWS V14.01,2013-07-10 13:40:00,
2013-07-10 09:45:00,82.4,76.0,30.07,SSE,161,2.0,4.0,81,0.00,,---,0.00,VWS V14.01,2013-07-10 13:45:00,
2013-07-10 09:50:00,82.6,74.7,30.07,SSE,148,0.0,4.0,77,0.00,,---,0.00,VWS V14.01,2013-07-10 13:50:00,
2013-07-10 09:55:00,82.5,74.9,30.07,SSW,196,3.0,4.0,78,0.00,,---,0.00,VWS V14.01,2013-07-10 13:55:00,
2013-07-10 10:00:00,82.6,74.3,30.07,South,182,2.0,2.0,76,0.00,,---,0.00,VWS V14.01,2013-07-10 14:00:00,
2013-07-10 10:05:00,83.0,73.9,30.08,South,182,0.0,2.0,74,0.00,,---,0.00,VWS V14.01,2013-07-10 14:05:00,
2013-07-10 10:10:00,83.4,74.7,30.07,South,182,0.0,3.0,75,0.00,,---,0.00,VWS V14.01,2013-07-10 14:10:00,
2013-07-10 10:15:00,83.5,75.1,30.07,South,182,1.0,3.0,76,0.00,,---,0.00,VWS V14.01,2013-07-10 14:15:00,
2013-07-10 10:20:00,83.7,75.7,30.07,South,181,0.0,3.0,77,0.00,,---,0.00,VWS V14.01,2013-07-10 14:20:00,
2013-07-10 10:25:00,84.3,74.7,30.07,South,174,0.0,3.0,73,0.00,,---,0.00,VWS V14.01,2013-07-10 14:25:00,
2013-07-10 10:30:00,84.5,74.1,30.07,South,171,0.0,3.0,71,0.00,,---,0.00,VWS V14.01,2013-07-10 14:30:00,
2013-07-10 10:31:00,84.6,75.0,30.07,South,171,2.0,3.0,73,0.00,,---,0.00,VWS V14.01,2013-07-10 14:31:00,
2013-07-10 10:36:00,84.4,74.4,30.07,South,171,1.0,4.0,72,0.00,,---,0.00,VWS V14.01,2013-07-10 14:36:00,
2013-07-10 10:41:00,84.6,73.7,30.07,SSW,211,1.0,4.0,70,0.00,,---,0.00,VWS V14.01,2013-07-10 14:41:00,
2013-07-10 10:46:00,84.7,73.8,30.07,SSW,211,0.0,4.0,70,0.00,,---,0.00,VWS V14.01,2013-07-10 14:46:00,
2013-07-10 10:51:00,85.1,74.2,30.07,South,175,4.0,4.0,70,0.00,,---,0.00,VWS V14.01,2013-07-10 14:51:00,
2013-07-10 10:56:00,85.0,74.6,30.07,South,174,2.0,5.0,71,0.00,,---,0.00,VWS V14.01,2013-07-10 14:56:00,
2013-07-10 11:00:00,85.0,75.8,30.07,South,174,3.0,5.0,74,0.00,,---,0.00,VWS V14.01,2013-07-10 15:00:00,
2013-07-10 11:01:00,85.0,75.0,30.07,South,174,1.0,4.0,72,0.00,,---,0.00,VWS V14.01,2013-07-10 15:01:00,
2013-07-10 11:06:00,85.3,75.2,30.07,SSE,167,0.0,4.0,72,0.00,,---,0.00,VWS V14.01,2013-07-10 15:06:00,
2013-07-10 11:11:00,85.8,74.9,30.07,SSE,167,0.0,4.0,70,0.00,,---,0.00,VWS V14.01,2013-07-10 15:11:00,
2013-07-10 11:17:00,86.1,75.2,30.07,SSE,167,1.0,4.0,70,0.00,,---,0.00,VWS V14.01,2013-07-10 15:17:00,
2013-07-10 11:22:00,85.9,76.2,30.07,SSE,165,3.0,4.0,73,0.00,,---,0.00,VWS V14.01,2013-07-10 15:22:00,
2013-07-10 11:27:00,86.2,75.7,30.06,SSE,165,0.0,4.0,71,0.00,,---,0.00,VWS V14.01,2013-07-10 15:27:00,
2013-07-10 11:30:00,86.2,74.8,30.06,SSE,165,2.0,4.0,69,0.00,,---,0.00,VWS V14.01,2013-07-10 15:30:00,
2013-07-10 11:32:00,86.2,74.8,30.06,SSE,165,0.0,2.0,69,0.00,,---,0.00,VWS V14.01,2013-07-10 15:32:00,
2013-07-10 11:37:00,86.3,74.9,30.07,SSE,165,1.0,3.0,69,0.00,,---,0.00,VWS V14.01,2013-07-10 15:37:00,
2013-07-10 11:42:00,86.2,74.4,30.07,SSE,159,1.0,5.0,68,0.00,,---,0.00,VWS V14.01,2013-07-10 15:42:00,
2013-07-10 11:48:00,86.2,75.3,30.06,SSE,148,3.0,5.0,70,0.00,,---,0.00,VWS V14.01,2013-07-10 15:48:00,
2013-07-10 11:53:00,86.2,74.4,30.07,SSE,148,2.0,5.0,68,0.00,,---,0.00,VWS V14.01,2013-07-10 15:53:00,
2013-07-10 11:58:00,86.3,74.9,30.06,SSE,148,0.0,5.0,69,0.00,,---,0.00,VWS V14.01,2013-07-10 15:58:00,
2013-07-10 12:00:00,86.4,75.9,30.06,SSE,155,3.0,6.0,71,0.00,,---,0.00,VWS V14.01,2013-07-10 16:00:00,
2013-07-10 12:04:00,86.9,76.4,30.07,South,175,2.0,7.0,71,0.00,,---,0.00,VWS V14.01,2013-07-10 16:04:00,
2013-07-10 12:09:00,86.9,75.5,30.06,South,172,3.0,7.0,69,0.00,,---,0.00,VWS V14.01,2013-07-10 16:09:00,
2013-07-10 12:14:00,87.2,74.5,30.06,South,169,1.0,7.0,66,0.00,,---,0.00,VWS V14.01,2013-07-10 16:14:00,
2013-07-10 12:19:00,87.1,73.9,30.06,SSE,154,1.0,7.0,65,0.00,,---,0.00,VWS V14.01,2013-07-10 16:19:00,
2013-07-10 12:24:00,86.8,74.1,30.06,South,174,4.0,7.0,66,0.00,,---,0.00,VWS V14.01,2013-07-10 16:24:00,
2013-07-10 12:29:00,86.9,74.6,30.06,South,173,1.0,7.0,67,0.00,,---,0.00,VWS V14.01,2013-07-10 16:29:00,
2013-07-10 12:30:00,87.0,74.7,30.06,South,173,3.0,7.0,67,0.00,,---,0.00,VWS V14.01,2013-07-10 16:30:00,
2013-07-10 12:34:00,86.9,74.2,30.06,South,175,3.0,5.0,66,0.00,,---,0.00,VWS V14.01,2013-07-10 16:34:00,
2013-07-10 12:39:00,86.8,73.6,30.06,South,174,2.0,5.0,65,0.00,,---,0.00,VWS V14.01,2013-07-10 16:39:00,
2013-07-10 12:44:00,86.7,74.9,30.06,South,180,1.0,5.0,68,0.00,,---,0.00,VWS V14.01,2013-07-10 16:44:00,
2013-07-10 12:49:00,87.0,74.7,30.06,SSW,194,2.0,5.0,67,0.00,,---,0.00,VWS V14.01,2013-07-10 16:49:00,
2013-07-10 12:54:00,87.1,74.8,30.06,SSE,161,1.0,5.0,67,0.00,,---,0.00,VWS V14.01,2013-07-10 16:54:00,
2013-07-10 12:59:00,87.5,75.2,30.06,South,178,0.0,5.0,67,0.00,,---,0.00,VWS V14.01,2013-07-10 16:59:00,
2013-07-10 13:00:00,87.5,74.3,30.06,South,178,0.0,5.0,65,0.00,,---,0.00,VWS V14.01,2013-07-10 17:00:00,
2013-07-10 13:04:00,88.0,74.8,30.05,South,182,2.0,4.0,65,0.00,,---,0.00,VWS V14.01,2013-07-10 17:04:00,
2013-07-10 13:09:00,88.1,73.9,30.05,SSW,194,3.0,4.0,63,0.00,,---,0.00,VWS V14.01,2013-07-10 17:09:00,
2013-07-10 13:14:00,87.7,74.0,30.05,SSE,167,2.0,5.0,64,0.00,,---,0.00,VWS V14.01,2013-07-10 17:14:00,
2013-07-10 13:19:00,87.6,74.4,30.05,SSE,167,2.0,5.0,65,0.00,,---,0.00,VWS V14.01,2013-07-10 17:19:00,
2013-07-10 13:24:00,88.1,74.4,30.04,SSE,162,4.0,5.0,64,0.00,,---,0.00,VWS V14.01,2013-07-10 17:24:00,
2013-07-10 13:29:00,88.1,75.3,30.04,South,183,1.0,5.0,66,0.00,,---,0.00,VWS V14.01,2013-07-10 17:29:00,
2013-07-10 13:30:00,88.1,75.3,30.04,South,183,2.0,5.0,66,0.00,,---,0.00,VWS V14.01,2013-07-10 17:30:00,
2013-07-10 13:34:00,88.3,74.1,30.04,South,178,2.0,4.0,63,0.00,,---,0.00,VWS V14.01,2013-07-10 17:34:00,
2013-07-10 13:39:00,88.3,76.0,30.03,South,186,2.0,7.0,67,0.00,,---,0.00,VWS V14.01,2013-07-10 17:39:00,
2013-07-10 13:45:00,88.4,75.6,30.03,SSE,162,3.0,7.0,66,0.00,,---,0.00,VWS V14.01,2013-07-10 17:45:00,
2013-07-10 13:50:00,88.8,76.4,30.03,South,173,3.0,7.0,67,0.00,,---,0.00,VWS V14.01,2013-07-10 17:50:00,
2013-07-10 13:55:00,88.9,74.2,30.03,South,183,7.0,7.0,62,0.00,,---,0.00,VWS V14.01,2013-07-10 17:55:00,
2013-07-10 14:00:00,88.8,75.5,30.02,SSW,194,1.0,1.0,65,0.00,,---,0.00,VWS V14.01,2013-07-10 18:00:00,
2013-07-10 14:05:00,89.1,75.8,30.02,SE,136,4.0,5.0,65,0.00,,---,0.00,VWS V14.01,2013-07-10 18:05:00,
2013-07-10 14:10:00,89.3,75.1,30.02,SSE,161,2.0,5.0,63,0.00,,---,0.00,VWS V14.01,2013-07-10 18:10:00,
2013-07-10 14:15:00,89.6,74.9,30.02,SSE,161,2.0,5.0,62,0.00,,---,0.00,VWS V14.01,2013-07-10 18:15:00,
2013-07-10 14:20:00,89.7,75.0,30.01,SSE,163,4.0,5.0,62,0.00,,---,0.00,VWS V14.01,2013-07-10 18:20:00,
2013-07-10 14:25:00,89.5,74.3,30.01,SSE,163,1.0,5.0,61,0.00,,---,0.00,VWS V14.01,2013-07-10 18:25:00,
2013-07-10 14:30:00,89.3,74.6,30.00,South,171,2.0,2.0,62,0.00,,---,0.00,VWS V14.01,2013-07-10 18:30:00,
2013-07-10 14:35:00,89.5,74.8,30.00,SSE,167,0.0,4.0,62,0.00,,---,0.00,VWS V14.01,2013-07-10 18:35:00,
2013-07-10 14:40:00,89.8,74.1,30.00,SSE,165,0.0,4.0,60,0.00,,---,0.00,VWS V14.01,2013-07-10 18:40:00,
2013-07-10 14:45:00,90.0,75.2,30.00,SSW,194,3.0,4.0,62,0.00,,---,0.00,VWS V14.01,2013-07-10 18:45:00,
2013-07-10 14:50:00,90.3,76.0,30.00,SE,139,0.0,4.0,63,0.00,,---,0.00,VWS V14.01,2013-07-10 18:50:00,
2013-07-10 14:55:00,90.7,74.4,30.00,SW,234,3.0,4.0,59,0.00,,---,0.00,VWS V14.01,2013-07-10 18:55:00,
2013-07-10 15:00:00,90.7,76.4,30.00,ESE,118,4.0,4.0,63,0.00,,---,0.00,VWS V14.01,2013-07-10 19:00:00,
2013-07-10 15:06:00,90.7,74.9,29.99,South,173,2.0,4.0,60,0.00,,---,0.00,VWS V14.01,2013-07-10 19:06:00,
2013-07-10 15:11:00,90.8,74.0,29.99,South,180,6.0,6.0,58,0.00,,---,0.00,VWS V14.01,2013-07-10 19:11:00,
2013-07-10 15:16:00,90.9,74.1,29.99,SW,215,4.0,6.0,58,0.00,,---,0.00,VWS V14.01,2013-07-10 19:16:00,
2013-07-10 15:21:00,91.1,74.8,29.98,South,176,2.0,6.0,59,0.00,,---,0.00,VWS V14.01,2013-07-10 19:21:00,
2013-07-10 15:26:00,90.8,74.0,29.98,South,183,1.0,6.0,58,0.00,,---,0.00,VWS V14.01,2013-07-10 19:26:00,
2013-07-10 15:30:00,91.1,75.8,29.98,South,169,4.0,6.0,61,0.00,,---,0.00,VWS V14.01,2013-07-10 19:30:00,
2013-07-10 15:31:00,91.1,74.3,29.98,SSE,162,3.0,4.0,58,0.00,,---,0.00,VWS V14.01,2013-07-10 19:31:00,
2013-07-10 15:36:00,90.9,74.1,29.98,SE,136,3.0,5.0,58,0.00,,---,0.00,VWS V14.01,2013-07-10 19:36:00,
2013-07-10 15:41:00,90.6,75.8,29.98,SE,145,3.0,5.0,62,0.00,,---,0.00,VWS V14.01,2013-07-10 19:41:00,
2013-07-10 15:46:00,90.0,76.7,29.98,ENE,66,4.0,15.0,65,0.00,,---,0.00,VWS V14.01,2013-07-10 19:46:00,
2013-07-10 15:51:00,86.5,77.2,29.98,ESE,113,4.0,15.0,74,0.00,,---,0.00,VWS V14.01,2013-07-10 19:51:00,
2013-07-10 15:56:00,82.5,76.1,29.98,ESE,115,5.0,15.0,81,0.03,,---,0.03,VWS V14.01,2013-07-10 19:56:00,
2013-07-10 16:00:00,80.8,75.5,29.98,SE,140,5.0,15.0,84,0.04,,---,0.04,VWS V14.01,2013-07-10 20:00:00,
2013-07-10 16:01:00,80.2,76.0,29.98,ESE,114,4.0,8.0,87,0.06,,---,0.06,VWS V14.01,2013-07-10 20:01:00,
2013-07-10 16:30:00,79.6,76.4,29.97,ESE,112,1.0,9.0,90,0.13,,---,0.13,VWS V14.01,2013-07-10 20:30:00,
2013-07-10 17:00:00,82.9,77.2,29.96,SE,135,1.0,4.0,83,0.13,,---,0.13,VWS V14.01,2013-07-10 21:00:00,
2013-07-10 17:30:00,85.3,76.1,29.96,SE,135,1.0,3.0,74,0.09,,---,0.13,VWS V14.01,2013-07-10 21:30:00,
2013-07-10 18:00:00,88.3,77.3,29.95,East,90,1.0,5.0,70,0.00,,---,0.13,VWS V14.01,2013-07-10 22:00:00,
2013-07-10 18:30:00,87.7,77.1,29.95,SSE,158,4.0,13.0,71,0.00,,---,0.13,VWS V14.01,2013-07-10 22:30:00,
2013-07-10 19:00:00,85.1,72.0,29.94,South,180,3.0,10.0,65,0.00,,---,0.13,VWS V14.01,2013-07-10 23:00:00,
2013-07-10 19:30:00,84.9,79.2,29.95,SSE,158,4.0,15.0,83,0.00,,---,0.13,VWS V14.01,2013-07-10 23:30:00,
2013-07-10 20:00:00,78.5,75.7,29.95,SE,135,6.0,14.0,91,0.00,,---,0.13,VWS V14.01,2013-07-11 00:00:00,
2013-07-10 20:30:00,76.3,73.8,29.96,SE,135,2.0,10.0,92,0.01,,---,0.14,VWS V14.01,2013-07-11 00:30:00,
2013-07-10 21:00:00,75.7,73.8,29.97,ESE,112,1.0,7.0,94,0.01,,---,0.14,VWS V14.01,2013-07-11 01:00:00,
2013-07-10 21:30:00,76.2,73.1,29.98,ESE,112,2.0,7.0,90,0.01,,---,0.14,VWS V14.01,2013-07-11 01:30:00,
2013-07-10 22:00:00,77.4,73.9,29.99,ESE,112,1.0,8.0,89,0.00,,---,0.14,VWS V14.01,2013-07-11 02:00:00,
2013-07-10 22:30:00,79.0,75.5,29.99,SE,135,3.0,9.0,89,0.00,,---,0.14,VWS V14.01,2013-07-11 02:30:00,
2013-07-10 23:00:00,79.5,75.6,30.01,South,180,3.0,9.0,88,0.00,,---,0.14,VWS V14.01,2013-07-11 03:00:00,
2013-07-10 23:30:00,78.8,75.9,30.02,South,180,0.0,3.0,91,0.00,,---,0.14,VWS V14.01,2013-07-11 03:30:00,